Current Weather

Michigan City Muni-Phillips Fld

Michigan City, Indiana (KMGC)

Report from: Saturday, February 4, 2023 12:15 AM EST
Current time: Saturday, February 4, 2023 12:52 AM EST

Nearby weather
Weather history
Weather forecast

Temperature-11.0°C (12.2°F)
Wind chill-14.4°C (6.1°F)
Dew point-16.0°C (3.2°F)
Winds 3 kts (1.5 m/s, 3.5 mph) Southeast (130°)
Visibility10 mi. (16.1 km)
Clouds Sky clear
Altimeter30.50 in.Hg (1033 mB)
Relative humidity66 %
Density altitude-3,897 ft. (-1,188 m)
Remarks Fully automated report
Automated weather observing station with precipitation discriminator
Flight conditions Visual Meteorological Conditions
Raw dataKMGC 040515Z AUTO 13003KT 10SM CLR M11/M16 A3050 RMK AO2
An unhandled exception has occurred. See browser dev tools for details. Reload 🗙